createdAt,value
2023-04-29T00:00:11.313Z,13.45
2023-04-29T00:02:58.641Z,13.56
2023-04-29T00:05:27.511Z,13.60
2023-04-29T00:07:54.916Z,13.58
2023-04-29T00:10:22.446Z,13.59
2023-04-29T00:12:51.558Z,13.61
2023-04-29T00:15:19.321Z,13.64
2023-04-29T00:17:47.244Z,13.58
2023-04-29T00:20:15.198Z,13.57
2023-04-29T00:22:42.751Z,13.58
2023-04-29T00:25:10.877Z,13.59
2023-04-29T00:27:39.497Z,13.35
2023-04-29T00:30:08.724Z,13.32
2023-04-29T00:32:36.568Z,13.45
2023-04-29T00:35:04.329Z,13.03
2023-04-29T00:37:31.621Z,13.18
2023-04-29T00:39:59.214Z,13.29
2023-04-29T00:42:27.441Z,13.42
2023-04-29T00:44:54.989Z,13.43
2023-04-29T00:47:22.475Z,13.49
2023-04-29T00:49:50.402Z,13.47
2023-04-29T00:52:19.273Z,13.46
2023-04-29T00:54:47.012Z,13.44
2023-04-29T00:57:15.291Z,13.51
2023-04-29T00:59:45.813Z,13.49
2023-04-29T01:02:13.962Z,13.51
2023-04-29T01:04:41.657Z,13.57
2023-04-29T01:07:24.061Z,13.49
2023-04-29T01:10:22.750Z,13.48
2023-04-29T01:13:18.097Z,13.42
2023-04-29T01:16:04.276Z,13.43
2023-04-29T01:18:44.023Z,13.43
2023-04-29T01:21:11.564Z,13.42
2023-04-29T01:23:38.848Z,13.43
2023-04-29T01:26:06.897Z,13.46
2023-04-29T01:29:27.390Z,13.46
2023-04-29T01:32:09.206Z,13.42
2023-04-29T01:35:00.144Z,13.37
2023-04-29T01:38:19.664Z,13.41
2023-04-29T01:41:23.729Z,13.40
2023-04-29T01:43:52.933Z,13.49
2023-04-29T01:46:20.549Z,13.50
2023-04-29T01:48:48.115Z,13.47
2023-04-29T01:51:15.380Z,13.48
2023-04-29T01:53:43.371Z,13.48
2023-04-29T01:56:10.756Z,13.51
2023-04-29T01:58:38.371Z,13.48
2023-04-29T02:01:07.115Z,13.45
2023-04-29T02:03:35.192Z,13.51
2023-04-29T02:06:02.627Z,13.50
2023-04-29T02:08:30.173Z,13.47
2023-04-29T02:11:00.023Z,13.45
2023-04-29T02:13:27.643Z,13.47
2023-04-29T02:15:54.877Z,13.44
2023-04-29T02:18:22.445Z,13.45
2023-04-29T02:20:51.135Z,13.44
2023-04-29T02:23:18.794Z,13.49
2023-04-29T02:25:46.039Z,13.43
2023-04-29T02:28:13.701Z,13.34
2023-04-29T02:30:40.956Z,13.35
2023-04-29T02:33:08.880Z,13.41
2023-04-29T02:35:36.400Z,13.39
2023-04-29T02:38:03.925Z,13.34
2023-04-29T02:40:31.173Z,13.32
2023-04-29T02:42:58.785Z,13.29
2023-04-29T02:45:26.023Z,13.35
2023-04-29T02:47:53.778Z,13.33
2023-04-29T02:50:21.083Z,13.37
2023-04-29T02:52:48.619Z,13.41
2023-04-29T02:55:15.974Z,13.24
2023-04-29T02:57:43.585Z,13.19
2023-04-29T03:00:11.441Z,13.25
2023-04-29T03:02:39.370Z,13.28
2023-04-29T03:05:07.306Z,13.34
2023-04-29T03:07:35.264Z,13.31
2023-04-29T03:10:02.606Z,13.27
2023-04-29T03:12:30.196Z,13.20
2023-04-29T03:14:57.573Z,13.22
2023-04-29T03:17:25.116Z,13.25
2023-04-29T03:19:54.671Z,13.25
2023-04-29T03:22:22.346Z,13.18
2023-04-29T03:24:49.578Z,13.12
2023-04-29T03:27:17.875Z,13.21
2023-04-29T03:29:45.153Z,13.18
2023-04-29T03:32:12.800Z,13.16
2023-04-29T03:34:40.401Z,13.17
2023-04-29T03:37:08.767Z,13.17
2023-04-29T03:39:36.007Z,13.12
2023-04-29T03:42:04.642Z,13.13
2023-04-29T03:44:31.984Z,13.13
2023-04-29T03:46:59.608Z,13.04
2023-04-29T03:49:26.928Z,12.97
2023-04-29T03:51:54.689Z,13.01
2023-04-29T03:54:22.054Z,13.09
2023-04-29T03:56:49.619Z,13.06
2023-04-29T03:59:16.870Z,13.07
2023-04-29T04:01:44.385Z,13.14
2023-04-29T04:04:11.862Z,13.14
2023-04-29T04:06:39.513Z,13.17
2023-04-29T04:09:06.765Z,13.20
2023-04-29T04:11:34.232Z,13.17
2023-04-29T04:14:01.550Z,13.19
2023-04-29T04:16:29.181Z,13.23
2023-04-29T04:18:56.523Z,13.24
2023-04-29T04:21:24.148Z,13.21
2023-04-29T04:23:51.477Z,13.22
2023-04-29T04:26:20.626Z,13.11
2023-04-29T04:28:47.932Z,13.07
2023-04-29T04:31:15.445Z,13.08
2023-04-29T04:33:42.687Z,13.12
2023-04-29T04:36:10.303Z,13.08
2023-04-29T04:38:37.559Z,12.73
2023-04-29T04:41:08.274Z,12.92
2023-04-29T04:43:35.467Z,13.04
2023-04-29T04:46:12.029Z,13.12
2023-04-29T04:48:39.868Z,13.27
2023-04-29T04:51:12.664Z,13.34
2023-04-29T04:53:41.320Z,13.39
2023-04-29T04:56:09.137Z,13.35
2023-04-29T04:58:36.390Z,13.40
2023-04-29T05:01:03.957Z,13.29
2023-04-29T05:03:31.501Z,13.38
2023-04-29T05:06:01.667Z,13.21
2023-04-29T05:08:29.016Z,13.26
2023-04-29T05:10:57.804Z,13.26
2023-04-29T05:13:28.554Z,13.21
2023-04-29T05:16:06.978Z,13.23
2023-04-29T05:18:35.098Z,13.17
2023-04-29T05:21:03.308Z,13.23
2023-04-29T05:23:30.530Z,13.18
2023-04-29T05:25:58.066Z,13.22
2023-04-29T05:28:27.645Z,13.29
2023-04-29T05:30:56.167Z,13.39
2023-04-29T05:33:23.725Z,13.38
2023-04-29T05:35:51.349Z,13.48
2023-04-29T05:38:18.682Z,13.46
2023-04-29T05:40:46.504Z,13.46
2023-04-29T05:43:13.963Z,13.46
2023-04-29T05:45:41.474Z,13.42
2023-04-29T05:48:08.765Z,13.42
2023-04-29T05:50:36.483Z,13.28
2023-04-29T05:53:04.876Z,13.45
2023-04-29T05:55:32.537Z,13.44
2023-04-29T05:57:59.719Z,13.44
2023-04-29T06:00:27.306Z,13.58
2023-04-29T06:02:58.784Z,13.56
2023-04-29T06:05:27.773Z,13.67
2023-04-29T06:07:55.374Z,13.72
2023-04-29T06:10:22.962Z,13.63
2023-04-29T06:12:51.920Z,13.96
2023-04-29T06:15:19.449Z,14.09
2023-04-29T06:17:47.481Z,14.13
2023-04-29T06:20:15.005Z,14.16
2023-04-29T06:22:42.253Z,14.02
2023-04-29T06:25:10.085Z,14.07
2023-04-29T06:27:37.386Z,13.96
2023-04-29T06:30:05.917Z,13.92
2023-04-29T06:32:33.229Z,13.94
2023-04-29T06:35:01.362Z,13.94
2023-04-29T06:37:28.923Z,13.86
2023-04-29T06:39:56.599Z,13.82
2023-04-29T06:42:23.817Z,13.89
2023-04-29T06:44:51.375Z,13.88
2023-04-29T06:47:18.747Z,13.93
2023-04-29T06:49:46.311Z,13.61
2023-04-29T06:52:13.967Z,13.71
2023-04-29T06:54:41.523Z,13.89
2023-04-29T06:57:08.812Z,13.89
2023-04-29T06:59:36.582Z,13.83
2023-04-29T07:02:03.893Z,13.71
2023-04-29T07:04:31.527Z,13.74
2023-04-29T07:06:59.669Z,13.85
2023-04-29T07:09:27.886Z,13.82
2023-04-29T07:11:55.601Z,13.81
2023-04-29T07:14:23.197Z,13.72
2023-04-29T07:16:56.499Z,13.84
2023-04-29T07:19:23.957Z,13.86
2023-04-29T07:21:51.191Z,13.89
2023-04-29T07:24:18.805Z,14.12
2023-04-29T07:26:46.162Z,14.20
2023-04-29T07:29:13.803Z,14.35
2023-04-29T07:31:41.073Z,14.23
2023-04-29T07:34:08.777Z,14.48
2023-04-29T07:36:36.002Z,14.56
2023-04-29T07:39:03.779Z,14.56
2023-04-29T07:41:31.200Z,14.77
2023-04-29T07:43:58.733Z,14.91
2023-04-29T07:46:26.005Z,14.95
2023-04-29T07:48:53.688Z,15.01
2023-04-29T07:51:21.914Z,15.11
2023-04-29T07:53:49.506Z,14.97
2023-04-29T07:56:16.811Z,15.04
2023-04-29T07:58:44.428Z,15.39
2023-04-29T08:01:12.361Z,15.68
2023-04-29T08:03:41.832Z,15.83
2023-04-29T08:06:09.574Z,16.05
2023-04-29T08:08:37.608Z,16.30
2023-04-29T08:11:05.225Z,16.40
2023-04-29T08:13:32.944Z,16.67
2023-04-29T08:16:00.283Z,16.94
2023-04-29T08:18:28.087Z,17.13
2023-04-29T08:20:55.302Z,16.97
2023-04-29T08:23:22.842Z,16.73
2023-04-29T08:25:52.336Z,17.38
2023-04-29T08:28:19.881Z,18.09
2023-04-29T08:30:47.115Z,18.77
2023-04-29T08:33:14.991Z,18.72
2023-04-29T08:35:42.742Z,19.03
2023-04-29T08:38:10.813Z,20.06
2023-04-29T08:40:49.280Z,20.96
2023-04-29T08:43:18.123Z,20.36
2023-04-29T08:45:48.673Z,20.95
2023-04-29T08:48:20.249Z,19.84
2023-04-29T08:50:47.652Z,19.69
2023-04-29T08:53:15.943Z,20.18
2023-04-29T08:55:46.896Z,20.13
2023-04-29T08:58:16.480Z,19.66
2023-04-29T09:00:45.148Z,20.03
2023-04-29T09:03:22.171Z,22.00
2023-04-29T09:05:53.937Z,23.55
2023-04-29T09:08:25.275Z,22.71
2023-04-29T09:10:55.676Z,21.75
2023-04-29T09:13:28.097Z,22.48
2023-04-29T09:15:56.326Z,19.66
2023-04-29T09:18:50.875Z,20.44
2023-04-29T09:21:32.382Z,20.88
2023-04-29T09:24:03.415Z,21.79
2023-04-29T09:26:44.336Z,22.18
2023-04-29T09:29:16.146Z,22.17
2023-04-29T09:31:43.976Z,21.20
2023-04-29T09:34:13.161Z,18.80
2023-04-29T09:36:50.358Z,19.20
2023-04-29T09:39:25.184Z,19.05
2023-04-29T09:41:55.417Z,18.53
2023-04-29T09:44:26.100Z,18.13
2023-04-29T09:47:06.746Z,18.18
2023-04-29T09:49:41.180Z,17.77
2023-04-29T09:52:12.515Z,17.89
2023-04-29T09:54:42.529Z,17.69
2023-04-29T09:57:13.032Z,17.27
2023-04-29T09:59:43.629Z,16.91
2023-04-29T10:02:16.113Z,16.78
2023-04-29T10:04:47.702Z,17.04
2023-04-29T10:07:18.731Z,17.07
2023-04-29T10:09:47.994Z,17.47
2023-04-29T10:12:20.692Z,17.56
2023-04-29T10:15:04.228Z,17.42
2023-04-29T10:17:47.357Z,16.99
2023-04-29T10:20:22.800Z,17.03
2023-04-29T10:22:52.863Z,16.85
2023-04-29T10:25:22.780Z,16.48
2023-04-29T10:27:53.621Z,16.76
2023-04-29T10:30:23.006Z,16.74
2023-04-29T10:32:52.776Z,16.90
2023-04-29T10:35:25.763Z,16.98
2023-04-29T10:37:56.212Z,16.46
2023-04-29T10:40:36.979Z,16.62
2023-04-29T10:43:04.847Z,16.49
2023-04-29T10:45:37.727Z,16.52
2023-04-29T10:48:10.917Z,16.62
2023-04-29T10:50:47.572Z,16.62
2023-04-29T10:53:19.588Z,16.37
2023-04-29T10:55:59.636Z,16.43
2023-04-29T10:58:46.245Z,16.39
2023-04-29T11:01:16.753Z,16.35
2023-04-29T11:03:58.584Z,16.31
2023-04-29T11:06:41.549Z,16.14
2023-04-29T11:09:21.467Z,16.38
2023-04-29T11:12:06.092Z,16.70
2023-04-29T11:14:41.599Z,16.78
2023-04-29T11:17:15.512Z,16.58
2023-04-29T11:19:52.741Z,16.79
2023-04-29T11:22:23.154Z,16.32
2023-04-29T11:25:01.874Z,16.16
2023-04-29T11:27:38.916Z,16.23
2023-04-29T11:30:08.541Z,16.45
2023-04-29T11:32:41.628Z,16.73
2023-04-29T11:35:15.499Z,17.03
2023-04-29T11:37:45.755Z,16.51
2023-04-29T11:40:15.361Z,17.10
2023-04-29T11:42:49.382Z,16.87
2023-04-29T11:45:20.493Z,16.67
2023-04-29T11:47:49.563Z,16.43
2023-04-29T11:50:19.981Z,16.52
2023-04-29T11:52:49.518Z,16.53
2023-04-29T11:55:17.252Z,16.58
2023-04-29T11:57:44.617Z,16.84
2023-04-29T12:00:14.277Z,17.26
2023-04-29T12:02:47.053Z,17.45
2023-04-29T12:05:17.462Z,18.09
2023-04-29T12:07:45.567Z,18.36
2023-04-29T12:10:13.352Z,18.17
2023-04-29T12:12:43.788Z,18.44
2023-04-29T12:15:13.539Z,20.10
2023-04-29T12:17:42.892Z,20.44
2023-04-29T12:20:12.301Z,19.99
2023-04-29T12:22:41.732Z,19.37
2023-04-29T12:25:10.052Z,19.71
2023-04-29T12:27:44.417Z,19.55
2023-04-29T12:30:12.965Z,19.77
2023-04-29T12:32:41.061Z,19.12
2023-04-29T12:35:17.284Z,19.20
2023-04-29T12:37:49.834Z,19.78
2023-04-29T12:40:20.630Z,19.61
2023-04-29T12:42:48.284Z,19.98
2023-04-29T12:45:34.226Z,20.58
2023-04-29T12:48:03.316Z,20.12
2023-04-29T12:50:38.950Z,20.38
2023-04-29T12:53:08.943Z,20.24
2023-04-29T12:55:38.680Z,20.25
2023-04-29T12:58:06.395Z,20.40
2023-04-29T13:00:35.260Z,20.25
2023-04-29T13:03:03.140Z,20.31
2023-04-29T13:05:31.109Z,20.32
2023-04-29T13:07:58.551Z,20.21
2023-04-29T13:10:26.416Z,20.15
2023-04-29T13:12:53.757Z,19.64
2023-04-29T13:15:21.676Z,19.95
2023-04-29T13:17:49.118Z,19.38
2023-04-29T13:20:16.718Z,19.95
2023-04-29T13:22:44.631Z,20.06
2023-04-29T13:25:12.658Z,19.91
2023-04-29T13:27:39.981Z,20.50
2023-04-29T13:30:09.342Z,20.49
2023-04-29T13:35:09.054Z,20.30
2023-04-29T13:37:36.372Z,19.75
2023-04-29T13:40:07.230Z,19.70
2023-04-29T13:42:39.581Z,20.09
2023-04-29T13:45:16.261Z,19.76
2023-04-29T13:48:03.149Z,19.87
2023-04-29T13:53:33.055Z,19.67
2023-04-29T13:56:41.167Z,19.19
2023-04-29T13:59:19.609Z,19.90
2023-04-29T14:02:08.690Z,19.12
2023-04-29T14:04:12.552Z,19.29
2023-04-29T14:06:40.403Z,19.26
2023-04-29T14:09:07.878Z,19.33
2023-04-29T14:11:36.887Z,19.21
2023-04-29T14:14:04.843Z,19.48
2023-04-29T14:16:33.097Z,19.38
2023-04-29T14:19:02.863Z,18.93
2023-04-29T14:21:33.385Z,18.69
2023-04-29T14:24:04.881Z,19.01
2023-04-29T14:26:32.574Z,18.88
2023-04-29T14:29:00.661Z,18.61
2023-04-29T14:31:40.643Z,17.92
2023-04-29T14:34:07.913Z,18.11
2023-04-29T14:36:35.551Z,17.73
2023-04-29T14:39:04.398Z,17.83
2023-04-29T14:41:32.004Z,17.62
2023-04-29T14:43:59.404Z,17.43
2023-04-29T14:46:29.107Z,17.62
2023-04-29T14:48:56.576Z,17.73
2023-04-29T14:51:24.132Z,17.36
2023-04-29T14:53:51.887Z,17.14
2023-04-29T14:56:19.409Z,17.34
2023-04-29T14:58:46.717Z,17.16
2023-04-29T15:01:14.335Z,17.49
2023-04-29T15:03:44.106Z,17.44
2023-04-29T15:06:13.546Z,17.41
2023-04-29T15:08:40.843Z,17.79
2023-04-29T15:11:08.356Z,17.96
2023-04-29T15:13:35.592Z,18.22
2023-04-29T15:16:04.233Z,18.27
2023-04-29T15:18:31.689Z,18.21
2023-04-29T15:20:59.484Z,18.50
2023-04-29T15:23:26.972Z,18.29
2023-04-29T15:25:54.989Z,18.49
2023-04-29T15:28:24.581Z,18.43
2023-04-29T15:30:52.498Z,18.15
2023-04-29T15:33:19.758Z,18.26
2023-04-29T15:35:47.376Z,17.69
2023-04-29T15:38:14.634Z,17.84
2023-04-29T15:40:42.137Z,17.50
2023-04-29T15:43:09.512Z,17.59
2023-04-29T15:45:37.311Z,17.24
2023-04-29T15:48:05.312Z,16.92
2023-04-29T15:50:32.868Z,17.24
2023-04-29T15:53:00.698Z,17.11
2023-04-29T15:55:28.573Z,17.12
2023-04-29T15:57:55.971Z,17.10
2023-04-29T16:00:23.476Z,17.00
2023-04-29T16:02:50.834Z,16.72
2023-04-29T16:05:18.407Z,16.90
2023-04-29T16:07:45.924Z,16.71
2023-04-29T16:10:13.522Z,16.58
2023-04-29T16:12:40.831Z,16.43
2023-04-29T16:15:09.658Z,16.64
2023-04-29T16:17:36.981Z,16.59
2023-04-29T16:20:05.506Z,16.63
2023-04-29T16:22:33.034Z,16.81
2023-04-29T16:25:00.554Z,16.95
2023-04-29T16:27:30.064Z,16.76
2023-04-29T16:29:57.754Z,16.80
2023-04-29T16:32:27.217Z,17.06
2023-04-29T16:34:54.938Z,16.62
2023-04-29T16:37:23.058Z,16.84
2023-04-29T16:39:50.777Z,16.56
2023-04-29T16:42:19.571Z,16.60
2023-04-29T16:44:47.027Z,16.31
2023-04-29T16:47:14.714Z,16.34
2023-04-29T16:49:42.603Z,16.60
2023-04-29T16:52:10.082Z,16.11
2023-04-29T16:54:37.630Z,16.18
2023-04-29T16:57:05.025Z,16.10
2023-04-29T16:59:32.746Z,16.41
2023-04-29T17:02:03.021Z,16.17
2023-04-29T17:04:33.579Z,16.17
2023-04-29T17:07:01.627Z,16.28
2023-04-29T17:09:29.400Z,16.13
2023-04-29T17:11:57.524Z,16.09
2023-04-29T17:14:25.053Z,15.92
2023-04-29T17:16:52.488Z,15.82
2023-04-29T17:19:20.030Z,15.77
2023-04-29T17:21:47.432Z,15.87
2023-04-29T17:24:15.105Z,15.67
2023-04-29T17:26:42.466Z,15.88
2023-04-29T17:29:10.854Z,15.62
2023-04-29T17:31:54.134Z,15.60
2023-04-29T17:34:25.612Z,15.34
2023-04-29T17:36:54.041Z,15.21
2023-04-29T17:39:21.597Z,15.37
2023-04-29T17:41:48.876Z,15.53
2023-04-29T17:44:16.563Z,15.44
2023-04-29T17:46:44.118Z,15.53
2023-04-29T17:49:11.875Z,15.33
2023-04-29T17:51:39.246Z,15.15
2023-04-29T17:54:08.462Z,15.29
2023-04-29T17:56:36.623Z,15.22
2023-04-29T17:59:06.133Z,15.32
2023-04-29T18:01:35.150Z,15.36
2023-04-29T18:04:02.969Z,15.33
2023-04-29T18:06:30.528Z,15.32
2023-04-29T18:08:58.212Z,15.30
2023-04-29T18:11:25.463Z,15.33
2023-04-29T18:13:54.555Z,15.17
2023-04-29T18:16:21.900Z,15.04
2023-04-29T18:18:55.196Z,15.08
2023-04-29T18:21:26.348Z,14.88
2023-04-29T18:23:57.784Z,15.12
2023-04-29T18:26:25.295Z,15.00
2023-04-29T18:28:52.954Z,15.11
2023-04-29T18:31:20.439Z,14.97
2023-04-29T18:33:48.282Z,15.09
2023-04-29T18:36:15.674Z,14.88
2023-04-29T18:38:43.645Z,14.76
2023-04-29T18:41:12.168Z,14.87
2023-04-29T18:43:39.877Z,14.88
2023-04-29T18:46:07.405Z,14.81
2023-04-29T18:48:36.633Z,14.75
2023-04-29T18:51:05.632Z,14.94
2023-04-29T18:53:33.485Z,14.66
2023-04-29T18:56:00.944Z,14.85
2023-04-29T18:58:28.634Z,14.95
2023-04-29T19:00:57.942Z,14.72
2023-04-29T19:03:26.559Z,14.91
2023-04-29T19:05:53.933Z,14.81
2023-04-29T19:08:21.599Z,14.83
2023-04-29T19:10:48.946Z,14.74
2023-04-29T19:13:16.742Z,14.89
2023-04-29T19:15:44.157Z,14.95
2023-04-29T19:18:11.700Z,15.10
2023-04-29T19:20:40.980Z,14.70
2023-04-29T19:23:08.661Z,14.82
2023-04-29T19:25:35.924Z,14.68
2023-04-29T19:28:03.716Z,14.75
2023-04-29T19:30:31.160Z,14.80
2023-04-29T19:32:58.930Z,14.75
2023-04-29T19:35:26.365Z,14.86
2023-04-29T19:37:54.920Z,14.74
2023-04-29T19:40:22.175Z,14.44
2023-04-29T19:42:49.787Z,14.24
2023-04-29T19:45:17.082Z,14.46
2023-04-29T19:47:44.711Z,13.89
2023-04-29T19:50:12.035Z,14.39
2023-04-29T19:52:39.739Z,14.19
2023-04-29T19:55:09.060Z,14.08
2023-04-29T19:57:37.126Z,14.11
2023-04-29T20:00:06.108Z,14.19
2023-04-29T20:02:33.981Z,14.37
2023-04-29T20:05:01.518Z,14.39
2023-04-29T20:07:29.099Z,14.44
2023-04-29T20:09:56.802Z,14.54
2023-04-29T20:12:24.652Z,14.42
2023-04-29T20:14:52.045Z,14.50
2023-04-29T20:17:19.624Z,14.26
2023-04-29T20:19:46.941Z,14.37
2023-04-29T20:22:14.580Z,14.13
2023-04-29T20:24:42.162Z,14.15
2023-04-29T20:27:09.787Z,14.15
2023-04-29T20:29:38.018Z,14.00
2023-04-29T20:32:06.090Z,14.14
2023-04-29T20:34:33.668Z,14.18
2023-04-29T20:37:01.539Z,14.27
2023-04-29T20:39:29.041Z,14.26
2023-04-29T20:41:57.116Z,14.28
2023-04-29T20:44:24.624Z,14.28
2023-04-29T20:46:53.159Z,14.21
2023-04-29T20:49:20.623Z,14.15
2023-04-29T20:51:49.444Z,14.06
2023-04-29T20:54:16.979Z,14.11
2023-04-29T20:56:44.549Z,13.99
2023-04-29T20:59:11.934Z,14.07
2023-04-29T21:01:46.447Z,13.83
2023-04-29T21:04:14.411Z,13.97
2023-04-29T21:06:42.152Z,14.04
2023-04-29T21:09:09.642Z,13.99
2023-04-29T21:11:37.360Z,13.79
2023-04-29T21:14:04.638Z,13.98
2023-04-29T21:16:32.177Z,14.07
2023-04-29T21:18:59.399Z,13.96
2023-04-29T21:21:27.394Z,13.91
2023-04-29T21:23:54.600Z,14.01
2023-04-29T21:26:22.236Z,14.07
2023-04-29T21:28:49.906Z,14.03
2023-04-29T21:31:17.759Z,14.08
2023-04-29T21:33:46.279Z,14.01
2023-04-29T21:36:13.927Z,13.86
2023-04-29T21:38:42.931Z,13.97
2023-04-29T21:41:37.404Z,13.98
2023-04-29T21:44:06.629Z,14.02
2023-04-29T21:46:36.293Z,13.96
2023-04-29T21:49:04.180Z,13.97
2023-04-29T21:51:32.243Z,13.97
2023-04-29T21:53:59.924Z,13.87
2023-04-29T21:56:27.442Z,13.84
2023-04-29T21:58:55.209Z,13.92
2023-04-29T22:01:41.490Z,13.84
2023-04-29T22:04:09.029Z,13.62
2023-04-29T22:06:36.999Z,13.82
2023-04-29T22:09:05.095Z,13.84
2023-04-29T22:11:33.259Z,13.90
2023-04-29T22:14:00.783Z,13.91
2023-04-29T22:16:28.391Z,13.85
2023-04-29T22:18:57.656Z,13.57
2023-04-29T22:21:25.205Z,13.62
2023-04-29T22:23:52.463Z,13.29
2023-04-29T22:26:20.119Z,13.58
2023-04-29T22:28:47.351Z,13.38
2023-04-29T22:31:14.921Z,13.46
2023-04-29T22:33:42.132Z,13.52
2023-04-29T22:36:09.816Z,13.39
2023-04-29T22:38:37.987Z,13.39
2023-04-29T22:41:05.995Z,13.19
2023-04-29T22:43:33.182Z,13.02
2023-04-29T22:46:01.211Z,12.91
2023-04-29T22:48:28.750Z,13.03
2023-04-29T22:50:59.629Z,13.01
2023-04-29T22:53:27.394Z,13.07
2023-04-29T22:55:57.900Z,12.97
2023-04-29T22:58:26.370Z,13.05
2023-04-29T23:00:57.067Z,13.02
2023-04-29T23:03:25.399Z,13.02
2023-04-29T23:05:59.707Z,12.76
2023-04-29T23:08:27.709Z,12.79
2023-04-29T23:10:55.613Z,13.04
2023-04-29T23:13:23.120Z,13.12
2023-04-29T23:15:50.815Z,13.11
2023-04-29T23:18:18.142Z,13.02
2023-04-29T23:20:49.276Z,12.79
2023-04-29T23:23:16.527Z,12.95
2023-04-29T23:25:45.377Z,13.07
2023-04-29T23:28:12.758Z,12.96
2023-04-29T23:30:40.404Z,13.03
2023-04-29T23:33:07.770Z,13.06
2023-04-29T23:35:35.600Z,12.98
2023-04-29T23:38:02.875Z,13.03
2023-04-29T23:40:31.809Z,13.05
2023-04-29T23:42:59.189Z,12.87
2023-04-29T23:45:26.704Z,13.08
2023-04-29T23:47:54.050Z,12.85
2023-04-29T23:50:21.570Z,12.78
2023-04-29T23:52:48.912Z,12.50
2023-04-29T23:55:16.509Z,12.53
2023-04-29T23:57:43.818Z,12.82
